Time;durP1;ratioP1;P1;durP2;ratioP2;P2;SDS_P1;SDS_P2;PMS_P1;PMS_P2;Temp;Humidity;BMP_temperature;BMP_pressure;BME280_temperature;BME280_humidity;BME280_pressure;Samples;Min_cycle;Max_cycle;Signal;HPM_P1;HPM_P2
2021/01/10 00:00:37;;;;;;;9.90;6.82;;;0.70;1.00;;;;;;5036361;28;21754;-70
2021/01/10 00:03:06;;;;;;;9.52;7.57;;;0.70;1.00;;;;;;5034694;28;20234;-70
2021/01/10 00:05:35;;;;;;;9.52;7.05;;;0.70;1.00;;;;;;5038395;28;20221;-69
2021/01/10 00:08:04;;;;;;;12.57;7.07;;;0.60;1.00;;;;;;5032817;28;20211;-76
2021/01/10 00:10:31;;;;;;;10.73;6.82;;;0.60;1.00;;;;;;5036526;28;20232;-71
2021/01/10 00:13:00;;;;;;;10.40;6.85;;;0.70;36.40;;;;;;5034462;28;20841;-69
2021/01/10 00:15:28;;;;;;;9.40;7.32;;;0.70;11.00;;;;;;5035524;28;20208;-70
2021/01/10 00:17:55;;;;;;;12.52;7.95;;;0.70;36.60;;;;;;5037661;28;20219;-69
2021/01/10 00:20:23;;;;;;;12.25;7.25;;;0.80;99.90;;;;;;5032864;28;20298;-70
2021/01/10 00:22:51;;;;;;;14.80;8.32;;;0.80;1.00;;;;;;5032683;28;20224;-69
2021/01/10 00:25:19;;;;;;;10.25;7.03;;;0.80;1.00;;;;;;5037087;28;20217;-68
2021/01/10 00:27:47;;;;;;;9.82;6.25;;;0.80;1.00;;;;;;5031558;28;20574;-69
2021/01/10 00:30:17;;;;;;;12.77;7.78;;;0.80;1.00;;;;;;5033994;28;20214;-70
2021/01/10 00:32:48;;;;;;;9.27;7.22;;;0.90;1.00;;;;;;5031427;28;20273;-70
2021/01/10 00:35:16;;;;;;;9.70;7.07;;;1.00;1.00;;;;;;5033254;28;20920;-68
2021/01/10 00:37:47;;;;;;;10.45;6.10;;;0.90;1.00;;;;;;5031462;28;20272;-71
2021/01/10 00:40:15;;;;;;;9.57;6.47;;;1.00;23.70;;;;;;5024058;28;20557;-68
2021/01/10 00:42:43;;;;;;;10.50;7.95;;;1.00;1.00;;;;;;5032045;28;20316;-70
2021/01/10 00:45:12;;;;;;;9.80;6.80;;;1.00;1.00;;;;;;5036889;28;20208;-70
2021/01/10 00:47:39;;;;;;;8.80;6.18;;;1.00;1.00;;;;;;5030303;28;20217;-70
2021/01/10 00:50:08;;;;;;;8.88;6.90;;;1.00;1.00;;;;;;5033625;28;20275;-71
2021/01/10 00:52:36;;;;;;;10.52;6.85;;;1.00;1.00;;;;;;5032934;28;21167;-72
2021/01/10 00:55:04;;;;;;;12.43;7.13;;;0.90;99.90;;;;;;5033672;28;20228;-73
2021/01/10 00:57:31;;;;;;;10.10;6.03;;;0.90;1.00;;;;;;5029248;28;20275;-69
2021/01/10 00:59:59;;;;;;;9.30;6.40;;;0.80;1.00;;;;;;5032991;28;20220;-74
2021/01/10 01:02:27;;;;;;;9.15;6.40;;;0.80;1.00;;;;;;5033216;28;20236;-72
2021/01/10 01:04:54;;;;;;;8.80;6.38;;;0.90;1.00;;;;;;5032608;28;20240;-71
2021/01/10 01:07:21;;;;;;;9.35;6.40;;;0.90;1.00;;;;;;5032735;28;20590;-73
2021/01/10 01:09:48;;;;;;;7.95;6.25;;;0.90;1.00;;;;;;5034908;28;20225;-71
2021/01/10 01:12:25;;;;;;;11.20;7.55;;;0.80;1.00;;;;;;5033769;28;20215;-69
2021/01/10 01:14:52;;;;;;;8.65;5.70;;;0.80;1.00;;;;;;5034320;28;20236;-72
2021/01/10 01:17:20;;;;;;;9.10;6.07;;;0.90;1.00;;;;;;5036831;28;20274;-70
2021/01/10 01:19:48;;;;;;;7.93;6.50;;;0.90;1.00;;;;;;5036644;28;20231;-73
2021/01/10 01:22:16;;;;;;;8.18;7.15;;;0.90;1.00;;;;;;5039892;28;20295;-71
2021/01/10 01:24:43;;;;;;;8.68;6.53;;;0.90;1.00;;;;;;5047070;28;20235;-69
2021/01/10 01:27:10;;;;;;;11.32;6.55;;;0.90;1.00;;;;;;5042873;28;20671;-71
2021/01/10 01:29:38;;;;;;;11.25;7.35;;;0.90;1.00;;;;;;5034253;28;20597;-70
2021/01/10 01:32:05;;;;;;;10.73;6.63;;;0.90;1.00;;;;;;5035956;28;20735;-70
2021/01/10 01:34:34;;;;;;;9.25;6.20;;;0.90;1.00;;;;;;5032791;28;20223;-72
2021/01/10 01:37:03;;;;;;;7.55;6.15;;;0.90;1.00;;;;;;5033190;28;20330;-74
2021/01/10 01:39:30;;;;;;;9.18;5.88;;;0.90;1.00;;;;;;5034907;28;20562;-73
2021/01/10 01:41:58;;;;;;;9.38;6.75;;;0.90;1.00;;;;;;5033153;28;20302;-70
2021/01/10 01:44:25;;;;;;;9.57;5.85;;;0.90;1.00;;;;;;5029294;28;20236;-70
2021/01/10 01:46:52;;;;;;;8.90;6.75;;;0.90;1.00;;;;;;5044481;28;20276;-70
2021/01/10 01:49:23;;;;;;;8.50;6.00;;;0.80;1.00;;;;;;5043737;28;20236;-70
2021/01/10 01:51:51;;;;;;;8.93;5.70;;;0.80;1.00;;;;;;5048216;28;20212;-70
2021/01/10 01:54:18;;;;;;;8.65;5.93;;;0.90;1.00;;;;;;5048910;28;20225;-71
2021/01/10 01:56:46;;;;;;;6.70;5.50;;;0.90;1.00;;;;;;5044137;28;20672;-70
2021/01/10 01:59:13;;;;;;;8.68;5.75;;;0.90;1.00;;;;;;5041838;28;20225;-72
2021/01/10 02:01:41;;;;;;;11.50;7.57;;;0.90;1.00;;;;;;5032479;28;20207;-71
2021/01/10 02:04:17;;;;;;;8.45;5.93;;;1.00;1.00;;;;;;5041755;28;20312;-71
2021/01/10 02:06:50;;;;;;;8.80;5.72;;;1.00;1.00;;;;;;5054428;28;20210;-71
2021/01/10 02:09:19;;;;;;;8.85;6.35;;;1.00;99.90;;;;;;5036508;28;20592;-72
2021/01/10 02:11:52;;;;;;;9.60;6.65;;;1.00;1.00;;;;;;5042337;28;20247;-72
2021/01/10 02:14:23;;;;;;;10.30;5.70;;;1.00;1.00;;;;;;5036413;28;20601;-72
2021/01/10 02:16:53;;;;;;;8.73;6.43;;;0.90;99.90;;;;;;5034499;28;20213;-71
2021/01/10 02:19:24;;;;;;;9.98;6.45;;;0.90;1.00;;;;;;5033620;28;20201;-73
2021/01/10 02:21:57;;;;;;;8.05;5.45;;;0.90;1.00;;;;;;5033727;28;20215;-73
2021/01/10 02:24:25;;;;;;;7.30;5.97;;;0.90;1.00;;;;;;5030378;28;20236;-72
2021/01/10 02:26:53;;;;;;;9.60;6.90;;;0.90;1.00;;;;;;5050851;28;20213;-71
2021/01/10 02:29:20;;;;;;;8.63;5.72;;;0.90;1.00;;;;;;5043172;28;20215;-72
2021/01/10 02:31:50;;;;;;;8.38;6.32;;;0.80;1.00;;;;;;5059262;28;20254;-71
2021/01/10 02:34:20;;;;;;;8.50;6.20;;;0.80;1.00;;;;;;5047712;28;20722;-71
2021/01/10 02:37:11;;;;;;;8.65;6.43;;;0.90;1.00;;;;;;5044776;28;20265;-68
2021/01/10 02:39:52;;;;;;;8.90;6.80;;;0.90;1.00;;;;;;5043825;28;20219;-72
2021/01/10 02:42:31;;;;;;;7.32;5.25;;;0.80;1.00;;;;;;5037480;28;20811;-73
2021/01/10 02:45:09;;;;;;;8.55;5.78;;;0.70;1.00;;;;;;5032694;28;20255;-73
2021/01/10 02:47:37;;;;;;;11.05;6.28;;;0.70;1.00;;;;;;5034051;28;20222;-71
2021/01/10 02:50:06;;;;;;;9.07;5.55;;;0.70;1.00;;;;;;5051854;28;20214;-71
2021/01/10 02:52:34;;;;;;;8.20;6.70;;;0.70;1.00;;;;;;5053175;28;20208;-72
2021/01/10 02:55:03;;;;;;;8.25;6.55;;;0.70;1.00;;;;;;5054264;28;20612;-71
2021/01/10 02:57:36;;;;;;;10.70;7.15;;;0.70;1.00;;;;;;5044447;28;20689;-72
2021/01/10 03:00:07;;;;;;;9.55;6.72;;;0.70;1.00;;;;;;5050438;28;20697;-71
2021/01/10 03:02:35;;;;;;;9.13;6.60;;;0.70;1.00;;;;;;5043950;28;20316;-73
2021/01/10 03:05:03;;;;;;;6.70;5.80;;;0.60;1.00;;;;;;5045650;28;20231;-72
2021/01/10 03:07:31;;;;;;;11.32;6.78;;;0.60;1.00;;;;;;5057829;28;20207;-74
2021/01/10 03:09:59;;;;;;;9.55;6.55;;;0.60;1.00;;;;;;5053992;28;20289;-72
2021/01/10 03:12:27;;;;;;;8.80;7.20;;;0.60;1.00;;;;;;5047404;28;20213;-72
2021/01/10 03:14:56;;;;;;;13.55;7.00;;;0.60;1.00;;;;;;5039403;28;20242;-72
2021/01/10 03:17:31;;;;;;;8.88;6.60;;;0.60;60.10;;;;;;5035269;28;20220;-72
2021/01/10 03:19:59;;;;;;;11.02;6.82;;;0.60;20.60;;;;;;5041672;28;20296;-72
2021/01/10 03:22:27;;;;;;;7.55;5.82;;;0.60;1.00;;;;;;5048842;28;20645;-73
2021/01/10 03:24:54;;;;;;;8.18;6.50;;;0.60;1.00;;;;;;5053847;28;20258;-71
2021/01/10 03:27:22;;;;;;;13.52;6.53;;;0.60;90.90;;;;;;5050562;28;20211;-73
2021/01/10 03:29:50;;;;;;;9.85;6.75;;;0.60;1.00;;;;;;5040926;28;20219;-71
2021/01/10 03:32:17;;;;;;;9.48;7.72;;;0.60;1.00;;;;;;5044723;28;20244;-76
2021/01/10 03:34:44;;;;;;;9.25;7.28;;;0.60;1.00;;;;;;5044414;28;20235;-72
2021/01/10 03:37:11;;;;;;;9.43;6.63;;;0.50;1.00;;;;;;5062880;28;20204;-74
2021/01/10 03:39:39;;;;;;;9.90;6.80;;;0.50;1.00;;;;;;5038279;28;20221;-71
2021/01/10 03:42:06;;;;;;;10.15;6.72;;;0.40;95.50;;;;;;5055793;28;20212;-71
2021/01/10 03:44:34;;;;;;;10.02;6.78;;;0.40;1.00;;;;;;5068232;28;20319;-71
2021/01/10 03:47:04;;;;;;;10.15;6.88;;;0.40;99.90;;;;;;5056431;28;20219;-70
2021/01/10 03:49:31;;;;;;;8.02;5.60;;;0.40;99.90;;;;;;5042016;28;20300;-68
2021/01/10 03:51:59;;;;;;;8.20;6.05;;;0.30;99.90;;;;;;5047320;28;20321;-70
2021/01/10 03:54:26;;;;;;;7.93;6.10;;;0.30;99.90;;;;;;5059222;28;20224;-68
2021/01/10 03:56:53;;;;;;;12.38;6.45;;;0.30;99.90;;;;;;5049111;28;20672;-73
2021/01/10 03:59:20;;;;;;;10.73;7.30;;;0.40;99.90;;;;;;5045712;28;20635;-72
2021/01/10 04:01:47;;;;;;;10.57;7.30;;;0.40;99.90;;;;;;5050878;28;20216;-71
2021/01/10 04:04:15;;;;;;;11.05;7.43;;;0.40;99.90;;;;;;5059223;28;20231;-71
2021/01/10 04:06:42;;;;;;;9.95;6.05;;;0.40;99.90;;;;;;5056019;28;20204;-70
2021/01/10 04:09:09;;;;;;;9.80;6.55;;;0.40;99.90;;;;;;5047385;28;20294;-71
2021/01/10 04:11:36;;;;;;;10.45;6.57;;;0.30;99.90;;;;;;5054583;28;20213;-73
2021/01/10 04:14:04;;;;;;;9.60;6.57;;;0.30;99.90;;;;;;5058945;28;20260;-70
2021/01/10 04:16:31;;;;;;;11.27;7.50;;;0.40;99.90;;;;;;5051941;28;20208;-70
2021/01/10 04:18:58;;;;;;;10.35;7.60;;;0.40;99.90;;;;;;5067531;28;20291;-71
2021/01/10 04:21:32;;;;;;;14.02;7.13;;;0.40;99.90;;;;;;5043789;28;20212;-72
2021/01/10 04:24:00;;;;;;;9.77;6.72;;;0.30;99.90;;;;;;5054285;28;20222;-71
2021/01/10 04:26:28;;;;;;;9.95;6.60;;;0.30;99.90;;;;;;5053995;28;20216;-70
2021/01/10 04:28:55;;;;;;;9.75;6.80;;;0.40;99.90;;;;;;5047846;28;20212;-72
2021/01/10 04:31:22;;;;;;;11.95;6.70;;;0.40;99.90;;;;;;5045223;28;20211;-72
2021/01/10 04:33:49;;;;;;;10.05;6.15;;;0.40;99.90;;;;;;5056140;28;20234;-72
2021/01/10 04:36:16;;;;;;;10.65;7.13;;;0.40;99.90;;;;;;5054172;28;20205;-71
2021/01/10 04:38:44;;;;;;;9.50;6.65;;;0.40;99.90;;;;;;5054158;28;20226;-71
2021/01/10 04:41:13;;;;;;;9.43;6.95;;;0.40;99.90;;;;;;5047052;28;20224;-71
2021/01/10 04:43:40;;;;;;;10.13;6.15;;;0.30;99.90;;;;;;5062742;28;20720;-75
2021/01/10 04:46:09;;;;;;;8.45;5.68;;;0.30;99.90;;;;;;5045267;28;20298;-71
2021/01/10 04:48:37;;;;;;;9.88;7.28;;;0.30;99.90;;;;;;5054930;28;20238;-72
2021/01/10 04:51:04;;;;;;;8.68;6.20;;;0.30;99.90;;;;;;5041677;28;20897;-70
2021/01/10 04:53:35;;;;;;;10.13;6.53;;;0.30;99.90;;;;;;5038780;28;21986;-72
2021/01/10 04:56:05;;;;;;;7.65;6.00;;;0.30;99.90;;;;;;5051067;28;20768;-72
2021/01/10 04:58:36;;;;;;;8.77;6.10;;;0.30;1.00;;;;;;5048695;28;20573;-74
2021/01/10 05:01:04;;;;;;;10.35;6.75;;;0.30;99.90;;;;;;5038699;28;20749;-69
2021/01/10 05:03:31;;;;;;;9.23;6.13;;;0.30;99.90;;;;;;5043485;28;20720;-73
2021/01/10 05:05:58;;;;;;;9.00;6.05;;;0.30;99.90;;;;;;5041163;28;20213;-71
2021/01/10 05:08:26;;;;;;;9.02;5.80;;;0.20;99.90;;;;;;5034464;28;20319;-72
2021/01/10 05:10:53;;;;;;;10.35;5.80;;;0.30;99.90;;;;;;5035389;28;20223;-70
2021/01/10 05:13:21;;;;;;;11.15;7.40;;;0.30;99.90;;;;;;5032497;28;20238;-70
2021/01/10 05:15:55;;;;;;;9.80;6.38;;;0.30;99.90;;;;;;5035413;28;20206;-74
2021/01/10 05:18:22;;;;;;;9.15;6.70;;;0.20;99.90;;;;;;5030036;28;20231;-72
2021/01/10 05:20:53;;;;;;;6.85;5.85;;;0.30;99.90;;;;;;5032576;28;20230;-74
2021/01/10 05:23:24;;;;;;;8.10;7.07;;;0.20;68.30;;;;;;5031891;28;20228;-72
2021/01/10 05:26:03;;;;;;;9.10;5.45;;;0.20;99.90;;;;;;5034608;28;20220;-74
2021/01/10 05:28:32;;;;;;;8.23;5.53;;;0.20;1.00;;;;;;5033670;28;20261;-71
2021/01/10 05:31:00;;;;;;;11.18;6.05;;;0.10;1.00;;;;;;5034427;28;20719;-71
2021/01/10 05:33:28;;;;;;;8.00;5.40;;;0.20;1.00;;;;;;5039305;28;20227;-73
2021/01/10 05:35:56;;;;;;;6.13;5.07;;;0.20;1.00;;;;;;5040344;28;20695;-71
2021/01/10 05:38:26;;;;;;;7.97;5.68;;;0.20;1.00;;;;;;5038731;28;20273;-71
2021/01/10 05:40:55;;;;;;;7.53;4.80;;;0.20;99.90;;;;;;5032117;28;20221;-71
2021/01/10 05:43:22;;;;;;;5.38;4.30;;;0.20;99.90;;;;;;5034544;28;20686;-73
2021/01/10 05:45:51;;;;;;;9.15;4.90;;;0.30;99.90;;;;;;5033323;28;20256;-73
2021/01/10 05:48:20;;;;;;;6.72;4.55;;;0.30;99.90;;;;;;5031089;28;20209;-70
2021/01/10 05:50:48;;;;;;;5.72;3.70;;;0.40;50.10;;;;;;5042987;28;20274;-72
2021/01/10 05:53:20;;;;;;;5.88;4.43;;;0.30;1.00;;;;;;5033935;28;20244;-75
2021/01/10 05:55:55;;;;;;;4.63;3.90;;;0.20;99.90;;;;;;5035319;28;20287;-73
2021/01/10 05:58:24;;;;;;;4.55;3.97;;;0.30;1.00;;;;;;5034976;28;22012;-72
2021/01/10 06:00:52;;;;;;;6.00;4.15;;;0.30;1.00;;;;;;5037476;28;20225;-72
2021/01/10 06:03:24;;;;;;;7.68;4.70;;;0.40;1.00;;;;;;5052950;28;20246;-72
2021/01/10 06:05:55;;;;;;;5.90;3.92;;;0.40;99.90;;;;;;5064461;28;20235;-74
2021/01/10 06:08:27;;;;;;;5.05;3.83;;;0.40;99.90;;;;;;5047716;28;20722;-71
2021/01/10 06:10:54;;;;;;;5.70;4.93;;;0.40;99.90;;;;;;5051307;28;20491;-74
2021/01/10 06:13:21;;;;;;;4.88;4.25;;;0.30;99.90;;;;;;5045521;28;20713;-72
2021/01/10 06:15:49;;;;;;;4.68;4.22;;;0.30;99.90;;;;;;5046985;28;20550;-73
2021/01/10 06:18:17;;;;;;;5.57;3.72;;;0.40;99.90;;;;;;5052869;28;20213;-71
2021/01/10 06:20:44;;;;;;;8.45;4.40;;;0.30;99.90;;;;;;5051425;28;20210;-72
2021/01/10 06:23:11;;;;;;;5.63;3.75;;;0.30;99.90;;;;;;5043892;28;20228;-72
2021/01/10 06:25:40;;;;;;;6.18;5.32;;;0.40;99.90;;;;;;5047369;28;20323;-72
2021/01/10 06:28:11;;;;;;;5.10;3.95;;;0.40;99.90;;;;;;5041323;28;20680;-72
2021/01/10 06:30:48;;;;;;;6.05;4.47;;;0.50;99.90;;;;;;5054412;28;20212;-71
2021/01/10 06:33:23;;;;;;;4.78;4.28;;;0.50;99.90;;;;;;5054162;28;20321;-72
2021/01/10 06:35:52;;;;;;;5.43;4.53;;;0.50;1.00;;;;;;5053787;28;20209;-71
2021/01/10 06:38:23;;;;;;;4.78;4.22;;;0.60;1.00;;;;;;5051356;28;20329;-71
2021/01/10 06:41:10;;;;;;;5.05;3.67;;;0.60;99.90;;;;;;5057999;28;20215;-71
2021/01/10 06:43:42;;;;;;;7.53;4.25;;;0.50;99.90;;;;;;5048766;28;20238;-71
2021/01/10 06:46:10;;;;;;;4.95;3.92;;;0.50;99.90;;;;;;5047608;28;20209;-73
2021/01/10 06:48:39;;;;;;;5.90;4.53;;;0.50;99.90;;;;;;5052084;28;20572;-73
2021/01/10 06:51:06;;;;;;;4.60;4.20;;;0.50;99.90;;;;;;5057910;28;20261;-72
2021/01/10 06:53:33;;;;;;;4.65;3.50;;;0.50;1.00;;;;;;5045669;28;20314;-72
2021/01/10 06:56:02;;;;;;;4.57;4.00;;;0.60;1.00;;;;;;5049513;28;20208;-72
2021/01/10 06:58:29;;;;;;;6.20;4.80;;;0.60;1.00;;;;;;5049430;28;20481;-71
2021/01/10 07:00:58;;;;;;;4.78;4.25;;;0.60;1.00;;;;;;5054672;28;20212;-71
2021/01/10 07:03:26;;;;;;;6.15;4.15;;;0.70;1.00;;;;;;5049251;28;20239;-72
2021/01/10 07:06:10;;;;;;;5.72;3.35;;;0.70;1.00;;;;;;5048388;28;20727;-72
2021/01/10 07:08:40;;;;;;;3.88;3.40;;;0.70;1.00;;;;;;5055740;28;20716;-72
2021/01/10 07:11:35;;;;;;;6.15;4.53;;;0.80;99.90;;;;;;5042746;28;20466;-74
2021/01/10 07:14:25;;;;;;;7.25;5.10;;;0.70;99.90;;;;;;5041248;28;20753;-73
2021/01/10 07:17:10;;;;;;;7.07;3.80;;;0.70;99.90;;;;;;5045115;28;20209;-74
2021/01/10 07:19:41;;;;;;;4.82;3.60;;;0.80;99.90;;;;;;5029971;28;20219;-72
2021/01/10 07:22:33;;;;;;;4.55;3.05;;;0.80;99.90;;;;;;5037432;28;20200;-72
2021/01/10 07:25:33;;;;;;;3.22;2.90;;;0.80;99.90;;;;;;5048799;28;20235;-71
2021/01/10 07:28:35;;;;;;;3.97;3.05;;;0.60;99.90;;;;;;5039675;28;20686;-72
2021/01/10 07:31:11;;;;;;;2.60;2.35;;;0.30;38.10;;;;;;5043893;28;20227;-73
2021/01/10 07:33:39;;;;;;;3.70;3.17;;;0.20;27.30;;;;;;5037370;28;20281;-73
2021/01/10 07:36:06;;;;;;;3.63;2.88;;;0.30;99.90;;;;;;5047769;28;20208;-72
2021/01/10 07:38:36;;;;;;;3.75;3.05;;;0.40;99.90;;;;;;5027896;28;20213;-74
2021/01/10 07:41:26;;;;;;;3.97;3.47;;;0.40;99.90;;;;;;5036475;28;20905;-72
2021/01/10 07:43:54;;;;;;;4.70;3.30;;;0.50;99.90;;;;;;5033768;28;20294;-68
2021/01/10 07:47:01;;;;;;;6.63;4.05;;;0.60;99.90;;;;;;5053928;28;20208;-73
2021/01/10 07:49:33;;;;;;;5.18;3.38;;;0.70;99.90;;;;;;5036665;28;20683;-71
2021/01/10 07:52:03;;;;;;;5.80;4.60;;;0.80;99.90;;;;;;5042035;28;20223;-72
2021/01/10 07:54:56;;;;;;;5.93;4.65;;;0.80;99.90;;;;;;5035917;28;20286;-73
2021/01/10 07:57:28;;;;;;;5.35;3.65;;;0.90;99.90;;;;;;5038124;28;20212;-73
2021/01/10 08:00:14;;;;;;;4.43;3.38;;;0.90;99.90;;;;;;5038136;28;21207;-72
2021/01/10 08:02:52;;;;;;;3.88;3.08;;;0.90;99.90;;;;;;5040068;28;20225;-72
2021/01/10 08:05:21;;;;;;;4.03;3.10;;;0.90;99.90;;;;;;5041252;28;20234;-71
2021/01/10 08:08:04;;;;;;;3.90;3.00;;;1.00;99.90;;;;;;5038263;28;20208;-71
2021/01/10 08:10:46;;;;;;;6.63;3.55;;;1.00;99.90;;;;;;5038658;28;20207;-72
2021/01/10 08:13:33;;;;;;;3.65;3.10;;;1.10;99.90;;;;;;5037924;28;20228;-72
2021/01/10 08:16:02;;;;;;;3.63;2.95;;;1.10;99.90;;;;;;5040563;28;20203;-72
2021/01/10 08:18:34;;;;;;;5.88;4.20;;;1.10;99.90;;;;;;5037386;28;20274;-72
2021/01/10 08:21:08;;;;;;;5.38;3.05;;;1.20;98.40;;;;;;5039420;28;20393;-71
2021/01/10 08:23:35;;;;;;;4.40;3.35;;;1.10;74.80;;;;;;5039283;28;20614;-72
2021/01/10 08:26:14;;;;;;;4.45;3.38;;;1.10;99.90;;;;;;5038959;28;20241;-72
2021/01/10 08:28:43;;;;;;;5.57;4.25;;;1.10;99.90;;;;;;5037937;28;20218;-72
2021/01/10 08:31:11;;;;;;;4.90;4.20;;;1.20;99.90;;;;;;5041016;28;20214;-72
2021/01/10 08:33:40;;;;;;;6.32;4.18;;;1.20;99.90;;;;;;5041544;28;20232;-72
2021/01/10 08:36:18;;;;;;;6.57;4.15;;;1.30;99.90;;;;;;5038629;28;20233;-72
2021/01/10 08:38:50;;;;;;;5.65;4.40;;;1.30;99.90;;;;;;5048452;28;20240;-72
2021/01/10 08:41:24;;;;;;;6.60;4.85;;;1.30;99.90;;;;;;5043365;28;20215;-74
2021/01/10 08:43:53;;;;;;;7.32;4.72;;;1.40;99.90;;;;;;5043570;28;20860;-73
2021/01/10 08:46:20;;;;;;;6.35;4.35;;;1.40;99.90;;;;;;5045343;28;20224;-74
2021/01/10 08:48:47;;;;;;;4.30;3.90;;;1.50;99.90;;;;;;5045145;28;20265;-72
2021/01/10 08:51:35;;;;;;;8.75;5.60;;;1.50;99.90;;;;;;5048941;28;20212;-73
2021/01/10 08:54:08;;;;;;;7.38;5.15;;;1.60;99.90;;;;;;5048639;28;20319;-74
2021/01/10 08:56:37;;;;;;;6.32;5.57;;;1.70;99.90;;;;;;5046480;28;20214;-72
2021/01/10 08:59:05;;;;;;;8.38;6.03;;;1.80;99.90;;;;;;5047141;28;20222;-71
2021/01/10 09:01:32;;;;;;;6.45;5.60;;;1.80;99.90;;;;;;5046841;28;20214;-72
2021/01/10 09:04:02;;;;;;;7.57;5.18;;;1.80;99.90;;;;;;5047486;28;20714;-72
2021/01/10 09:07:00;;;;;;;6.32;5.28;;;1.90;99.90;;;;;;5047814;28;20683;-75
2021/01/10 09:09:40;;;;;;;6.25;4.72;;;2.00;99.10;;;;;;5045644;28;20239;-72
2021/01/10 09:12:16;;;;;;;7.60;5.13;;;2.20;99.90;;;;;;5045354;28;20261;-74
2021/01/10 09:14:47;;;;;;;7.40;5.80;;;2.40;47.80;;;;;;5050039;28;20257;-76
2021/01/10 09:17:16;;;;;;;5.18;4.30;;;2.50;1.00;;;;;;5052437;28;20214;-76
2021/01/10 09:19:48;;;;;;;7.95;6.20;;;2.60;1.00;;;;;;5042860;28;20207;-73
2021/01/10 09:22:16;;;;;;;4.97;4.45;;;2.70;1.00;;;;;;5046662;28;20307;-73
2021/01/10 09:24:45;;;;;;;6.88;5.47;;;2.80;1.00;;;;;;5049563;28;20240;-71
2021/01/10 09:27:18;;;;;;;4.43;4.03;;;2.90;1.00;;;;;;5046592;28;20213;-73
2021/01/10 09:29:45;;;;;;;6.68;4.65;;;3.00;1.00;;;;;;5049184;28;20216;-73
2021/01/10 09:32:20;;;;;;;8.73;5.30;;;3.00;1.00;;;;;;5046445;28;20207;-73
2021/01/10 09:34:55;;;;;;;5.15;4.28;;;3.00;1.00;;;;;;5051464;28;20225;-73
2021/01/10 09:37:28;;;;;;;4.28;3.83;;;2.60;99.90;;;;;;5053671;28;20211;-74
2021/01/10 09:40:07;;;;;;;4.40;3.70;;;2.80;99.90;;;;;;5051228;28;20207;-74
2021/01/10 09:42:42;;;;;;;7.05;4.60;;;2.70;99.90;;;;;;5043772;28;20228;-72
2021/01/10 09:45:11;;;;;;;3.90;3.10;;;2.90;99.90;;;;;;5045101;28;20214;-74
2021/01/10 09:47:40;;;;;;;4.85;4.20;;;2.90;99.90;;;;;;5042036;28;20225;-75
2021/01/10 09:50:12;;;;;;;5.40;3.63;;;2.70;99.90;;;;;;5038204;28;20201;-73
2021/01/10 09:52:50;;;;;;;5.55;3.63;;;2.80;99.90;;;;;;5048715;28;20210;-75
2021/01/10 09:55:18;;;;;;;3.90;3.08;;;3.10;99.90;;;;;;5046120;28;20205;-75
2021/01/10 09:57:46;;;;;;;4.15;3.28;;;3.40;99.90;;;;;;5043572;28;20209;-72
2021/01/10 10:00:15;;;;;;;5.40;3.67;;;3.30;99.90;;;;;;5047419;28;20270;-73
2021/01/10 10:02:47;;;;;;;4.78;3.78;;;3.60;99.90;;;;;;5044968;28;20254;-73
2021/01/10 10:05:16;;;;;;;7.15;4.07;;;3.60;99.90;;;;;;5044819;28;20233;-74
2021/01/10 10:07:46;;;;;;;4.93;3.70;;;3.80;99.90;;;;;;5047832;28;20213;-74
2021/01/10 10:10:24;;;;;;;4.20;2.92;;;4.10;99.90;;;;;;5052998;28;20210;-73
2021/01/10 10:12:55;;;;;;;4.78;4.38;;;4.20;99.90;;;;;;5053162;28;20310;-73
2021/01/10 10:15:23;;;;;;;2.97;2.72;;;4.30;99.90;;;;;;5043068;28;20479;-74
2021/01/10 10:17:57;;;;;;;2.78;2.42;;;4.10;99.90;;;;;;5046613;28;20524;-75
2021/01/10 10:20:25;;;;;;;3.05;2.75;;;4.40;99.90;;;;;;5047302;28;20214;-74
2021/01/10 10:22:52;;;;;;;4.03;2.42;;;4.80;99.90;;;;;;5048034;28;20246;-75
2021/01/10 10:25:19;;;;;;;3.08;2.63;;;4.50;99.90;;;;;;5041692;28;20216;-72
2021/01/10 10:27:59;;;;;;;2.57;2.07;;;4.70;99.90;;;;;;5048554;28;20200;-74
2021/01/10 10:30:26;;;;;;;3.33;2.70;;;4.40;99.90;;;;;;5042378;28;20524;-74
2021/01/10 10:32:54;;;;;;;2.25;2.15;;;4.50;99.90;;;;;;5056299;28;20277;-75
2021/01/10 10:35:22;;;;;;;2.03;1.70;;;4.50;99.90;;;;;;5048588;28;20218;-74
2021/01/10 10:37:50;;;;;;;2.57;2.10;;;4.70;99.90;;;;;;5059356;28;20551;-75
2021/01/10 10:40:18;;;;;;;2.43;2.10;;;4.70;99.90;;;;;;5042647;28;20464;-74
2021/01/10 10:42:46;;;;;;;2.00;1.90;;;4.80;99.90;;;;;;5035722;28;20466;-73
2021/01/10 10:45:15;;;;;;;2.40;2.20;;;4.70;99.90;;;;;;5037854;28;20475;-74
2021/01/10 10:47:42;;;;;;;2.93;2.50;;;4.60;99.90;;;;;;5046725;28;20559;-72
2021/01/10 10:50:10;;;;;;;2.85;2.30;;;5.10;99.90;;;;;;5036422;28;20466;-73
2021/01/10 10:52:38;;;;;;;2.20;2.10;;;6.10;99.90;;;;;;5039059;28;20206;-77
2021/01/10 10:55:06;;;;;;;1.80;1.70;;;7.10;99.90;;;;;;5049263;28;20463;-73
2021/01/10 10:57:33;;;;;;;2.27;2.07;;;8.20;99.90;;;;;;5041230;28;20462;-73
2021/01/10 11:00:00;;;;;;;2.70;2.10;;;8.40;99.90;;;;;;5039851;28;20470;-72
2021/01/10 11:02:28;;;;;;;2.50;2.07;;;8.30;99.90;;;;;;5044209;28;20472;-72
2021/01/10 11:04:56;;;;;;;2.50;2.00;;;8.60;99.90;;;;;;5041347;28;20841;-72
2021/01/10 11:07:23;;;;;;;2.60;2.40;;;9.30;99.90;;;;;;5039474;28;20563;-73
2021/01/10 11:09:50;;;;;;;2.87;2.57;;;9.30;99.90;;;;;;5039872;28;20520;-72
2021/01/10 11:12:17;;;;;;;3.00;2.73;;;8.90;99.90;;;;;;5036333;28;21066;-73
2021/01/10 11:14:44;;;;;;;3.47;3.17;;;9.10;99.90;;;;;;5045444;28;20482;-73
2021/01/10 11:17:13;;;;;;;2.47;2.20;;;9.60;99.90;;;;;;5037708;28;20479;-72
2021/01/10 11:19:42;;;;;;;3.50;2.30;;;8.90;99.90;;;;;;5054396;28;20907;-73
2021/01/10 11:22:09;;;;;;;3.00;2.70;;;8.20;99.90;;;;;;5047989;28;20547;-73
2021/01/10 11:24:36;;;;;;;3.10;2.80;;;7.10;99.90;;;;;;5047346;28;20454;-75
2021/01/10 11:27:04;;;;;;;2.67;2.47;;;7.20;99.90;;;;;;5053028;28;20205;-73
2021/01/10 11:29:31;;;;;;;3.30;2.70;;;7.10;99.90;;;;;;5056286;28;20477;-72
2021/01/10 11:31:58;;;;;;;3.73;2.50;;;6.90;99.90;;;;;;5050355;28;20460;-73
2021/01/10 11:34:25;;;;;;;3.58;3.28;;;7.00;99.90;;;;;;5051199;28;20556;-73
2021/01/10 11:36:55;;;;;;;4.57;3.47;;;6.60;99.90;;;;;;5056706;28;20222;-72
2021/01/10 11:39:23;;;;;;;3.10;2.90;;;6.80;99.90;;;;;;5054412;28;20466;-72
2021/01/10 11:41:53;;;;;;;2.87;2.67;;;6.40;99.90;;;;;;5047989;28;20463;-72
2021/01/10 11:44:22;;;;;;;2.57;2.37;;;6.00;99.90;;;;;;5049934;28;20475;-73
2021/01/10 11:46:52;;;;;;;3.50;3.00;;;5.40;99.90;;;;;;5048824;28;20477;-72
2021/01/10 11:49:21;;;;;;;3.00;2.80;;;5.20;99.90;;;;;;5050548;28;21146;-72
2021/01/10 11:51:49;;;;;;;3.13;2.93;;;4.80;99.90;;;;;;5051332;28;20494;-72
2021/01/10 11:54:18;;;;;;;2.90;2.67;;;4.90;99.90;;;;;;5048587;28;20520;-72
2021/01/10 11:56:47;;;;;;;2.90;2.60;;;5.00;99.90;;;;;;5051712;28;20479;-73
2021/01/10 11:59:14;;;;;;;3.75;3.35;;;5.10;99.90;;;;;;5050629;28;20465;-72
2021/01/10 12:01:43;;;;;;;3.25;2.95;;;4.90;99.90;;;;;;5053447;28;20308;-73
2021/01/10 12:04:11;;;;;;;3.80;3.47;;;4.80;99.90;;;;;;5054100;28;20584;-72
2021/01/10 12:06:40;;;;;;;4.03;3.63;;;5.40;99.90;;;;;;5045327;28;20272;-73
2021/01/10 12:09:11;;;;;;;3.47;3.17;;;5.60;99.90;;;;;;5056793;28;20456;-74
2021/01/10 12:11:39;;;;;;;3.70;2.90;;;6.20;99.90;;;;;;5053971;28;20206;-75
2021/01/10 12:14:07;;;;;;;4.73;3.93;;;6.10;99.90;;;;;;5059763;28;20507;-75
2021/01/10 12:16:36;;;;;;;5.40;4.87;;;6.30;99.90;;;;;;5043142;28;20461;-76
2021/01/10 12:19:04;;;;;;;7.20;5.63;;;7.10;99.90;;;;;;5050964;28;20522;-71
2021/01/10 12:21:32;;;;;;;5.50;5.00;;;7.60;99.90;;;;;;5053887;28;20463;-71
2021/01/10 12:23:59;;;;;;;6.13;5.23;;;7.80;99.90;;;;;;5056485;28;20490;-71
2021/01/10 12:26:26;;;;;;;5.90;4.17;;;7.70;99.90;;;;;;5041851;28;20552;-71
2021/01/10 12:28:55;;;;;;;9.00;4.50;;;7.40;99.90;;;;;;5051528;28;20467;-71
2021/01/10 12:31:22;;;;;;;3.50;3.20;;;7.20;99.90;;;;;;5045351;28;20460;-71
2021/01/10 12:33:49;;;;;;;3.87;3.43;;;7.30;99.90;;;;;;5047826;28;20532;-71
2021/01/10 12:36:16;;;;;;;4.50;4.00;;;7.50;99.90;;;;;;5041264;28;20513;-74
2021/01/10 12:38:44;;;;;;;5.20;4.20;;;7.70;99.90;;;;;;5045926;28;20457;-74
2021/01/10 12:41:11;;;;;;;4.13;3.73;;;7.40;99.90;;;;;;5042967;28;20461;-72
2021/01/10 12:43:39;;;;;;;5.93;4.60;;;7.60;99.90;;;;;;5050536;28;20506;-71
2021/01/10 12:46:07;;;;;;;4.23;3.83;;;8.00;99.90;;;;;;5050314;28;20876;-73
2021/01/10 12:48:34;;;;;;;5.00;4.50;;;8.40;99.90;;;;;;5050990;28;20991;-71
2021/01/10 12:51:01;;;;;;;8.07;5.73;;;9.00;99.90;;;;;;5050190;28;20487;-72
2021/01/10 12:53:28;;;;;;;5.17;4.63;;;9.40;99.90;;;;;;5050381;28;20488;-72
2021/01/10 12:55:56;;;;;;;6.50;5.20;;;9.40;99.90;;;;;;5050220;28;20539;-72
2021/01/10 12:58:23;;;;;;;4.90;3.93;;;9.30;99.90;;;;;;5050412;28;20465;-73
2021/01/10 13:00:51;;;;;;;4.67;4.27;;;9.10;99.90;;;;;;5050137;28;20985;-73
2021/01/10 13:03:19;;;;;;;4.67;4.23;;;8.70;99.90;;;;;;5050314;28;20476;-72
2021/01/10 13:05:47;;;;;;;5.33;4.83;;;8.40;99.90;;;;;;5049773;28;21218;-73
2021/01/10 13:08:14;;;;;;;5.40;4.83;;;8.00;99.90;;;;;;5050995;28;20454;-72
2021/01/10 13:10:41;;;;;;;4.70;4.30;;;7.70;99.90;;;;;;5050024;28;20456;-73
2021/01/10 13:13:09;;;;;;;4.70;4.30;;;7.40;99.90;;;;;;5049321;28;20488;-72
2021/01/10 13:15:36;;;;;;;5.93;5.33;;;6.90;99.90;;;;;;5049992;28;20452;-72